sensor_id;sensor_type;location;lat;lon;timestamp;pressure;altitude;pressure_sealevel;temperature;humidity
49979;BME280;35869;50.990;6.962;2024-02-14T00:01:50;101341.59;;;8.24;100.00
49979;BME280;35869;50.990;6.962;2024-02-14T00:06:50;101344.13;;;8.27;100.00
49979;BME280;35869;50.990;6.962;2024-02-14T00:11:50;101345.00;;;8.26;100.00
49979;BME280;35869;50.990;6.962;2024-02-14T00:16:51;101336.22;;;8.32;100.00
49979;BME280;35869;50.990;6.962;2024-02-14T00:21:51;101337.28;;;8.24;100.00
49979;BME280;35869;50.990;6.962;2024-02-14T00:26:51;101333.00;;;8.23;100.00
49979;BME280;35869;50.990;6.962;2024-02-14T00:31:51;101334.00;;;8.18;100.00
49979;BME280;35869;50.990;6.962;2024-02-14T00:36:51;101321.53;;;8.32;100.00
49979;BME280;35869;50.990;6.962;2024-02-14T00:41:52;101312.06;;;8.31;100.00
49979;BME280;35869;50.990;6.962;2024-02-14T00:46:58;101323.47;;;8.24;100.00
49979;BME280;35869;50.990;6.962;2024-02-14T00:51:58;101327.66;;;8.29;100.00
49979;BME280;35869;50.990;6.962;2024-02-14T00:56:59;101326.72;;;8.32;100.00
49979;BME280;35869;50.990;6.962;2024-02-14T01:01:59;101310.22;;;8.38;100.00
49979;BME280;35869;50.990;6.962;2024-02-14T01:06:59;101305.69;;;8.46;100.00
49979;BME280;35869;50.990;6.962;2024-02-14T01:11:59;101309.97;;;8.47;100.00
49979;BME280;35869;50.990;6.962;2024-02-14T01:16:59;101297.81;;;8.50;100.00
49979;BME280;35869;50.990;6.962;2024-02-14T01:22:00;101300.41;;;8.50;100.00
49979;BME280;35869;50.990;6.962;2024-02-14T01:27:00;101307.50;;;8.42;100.00
49979;BME280;35869;50.990;6.962;2024-02-14T01:32:00;101296.97;;;8.48;100.00
49979;BME280;35869;50.990;6.962;2024-02-14T01:37:01;101292.75;;;8.46;100.00
49979;BME280;35869;50.990;6.962;2024-02-14T01:42:10;101292.63;;;8.50;100.00
49979;BME280;35869;50.990;6.962;2024-02-14T01:47:10;101293.25;;;8.59;100.00
49979;BME280;35869;50.990;6.962;2024-02-14T01:52:11;101298.56;;;8.54;100.00
49979;BME280;35869;50.990;6.962;2024-02-14T01:57:12;101293.34;;;8.55;100.00
49979;BME280;35869;50.990;6.962;2024-02-14T02:02:12;101288.09;;;8.59;100.00
49979;BME280;35869;50.990;6.962;2024-02-14T02:07:26;101273.31;;;8.62;100.00
49979;BME280;35869;50.990;6.962;2024-02-14T02:12:29;101279.41;;;8.60;100.00
49979;BME280;35869;50.990;6.962;2024-02-14T02:17:30;101287.97;;;8.62;100.00
49979;BME280;35869;50.990;6.962;2024-02-14T02:22:30;101281.88;;;8.64;100.00
49979;BME280;35869;50.990;6.962;2024-02-14T02:27:30;101286.47;;;8.54;100.00
49979;BME280;35869;50.990;6.962;2024-02-14T02:32:31;101282.72;;;8.65;100.00
49979;BME280;35869;50.990;6.962;2024-02-14T02:37:33;101280.78;;;8.73;100.00
49979;BME280;35869;50.990;6.962;2024-02-14T02:42:37;101285.25;;;8.68;100.00
49979;BME280;35869;50.990;6.962;2024-02-14T02:47:37;101299.00;;;8.70;100.00
49979;BME280;35869;50.990;6.962;2024-02-14T02:52:38;101312.94;;;8.66;100.00
49979;BME280;35869;50.990;6.962;2024-02-14T02:57:41;101319.06;;;8.62;100.00
49979;BME280;35869;50.990;6.962;2024-02-14T03:02:41;101318.22;;;8.63;100.00
49979;BME280;35869;50.990;6.962;2024-02-14T03:07:41;101317.19;;;8.68;100.00
49979;BME280;35869;50.990;6.962;2024-02-14T03:12:42;101310.44;;;8.63;100.00
49979;BME280;35869;50.990;6.962;2024-02-14T03:17:42;101306.66;;;8.74;100.00
49979;BME280;35869;50.990;6.962;2024-02-14T03:22:42;101297.22;;;8.72;100.00
49979;BME280;35869;50.990;6.962;2024-02-14T03:27:43;101291.97;;;8.73;100.00
49979;BME280;35869;50.990;6.962;2024-02-14T03:32:44;101303.06;;;8.80;100.00
49979;BME280;35869;50.990;6.962;2024-02-14T03:37:53;101304.69;;;8.82;100.00
49979;BME280;35869;50.990;6.962;2024-02-14T03:42:53;101308.16;;;8.83;100.00
49979;BME280;35869;50.990;6.962;2024-02-14T03:47:53;101290.72;;;8.88;100.00
49979;BME280;35869;50.990;6.962;2024-02-14T03:52:54;101299.28;;;8.90;100.00
49979;BME280;35869;50.990;6.962;2024-02-14T03:57:54;101288.84;;;8.93;100.00
49979;BME280;35869;50.990;6.962;2024-02-14T04:02:57;101293.38;;;8.85;100.00
49979;BME280;35869;50.990;6.962;2024-02-14T04:07:57;101303.56;;;8.93;100.00
49979;BME280;35869;50.990;6.962;2024-02-14T04:12:57;101293.63;;;9.07;100.00
49979;BME280;35869;50.990;6.962;2024-02-14T04:17:58;101302.53;;;8.98;100.00
49979;BME280;35869;50.990;6.962;2024-02-14T04:22:58;101305.97;;;8.99;100.00
49979;BME280;35869;50.990;6.962;2024-02-14T04:27:58;101308.53;;;9.00;100.00
49979;BME280;35869;50.990;6.962;2024-02-14T04:33:00;101318.09;;;8.98;100.00
49979;BME280;35869;50.990;6.962;2024-02-14T04:38:03;101302.91;;;9.16;100.00
49979;BME280;35869;50.990;6.962;2024-02-14T04:43:04;101306.69;;;9.04;100.00
49979;BME280;35869;50.990;6.962;2024-02-14T04:48:08;101298.94;;;9.04;100.00
49979;BME280;35869;50.990;6.962;2024-02-14T04:53:16;101307.63;;;9.01;100.00
49979;BME280;35869;50.990;6.962;2024-02-14T04:58:17;101305.69;;;9.10;100.00
49979;BME280;35869;50.990;6.962;2024-02-14T05:03:17;101320.56;;;9.03;100.00
49979;BME280;35869;50.990;6.962;2024-02-14T05:08:17;101310.75;;;9.13;100.00
49979;BME280;35869;50.990;6.962;2024-02-14T05:13:18;101321.25;;;9.10;100.00
49979;BME280;35869;50.990;6.962;2024-02-14T05:18:21;101329.03;;;9.10;100.00
49979;BME280;35869;50.990;6.962;2024-02-14T05:23:49;101330.00;;;9.05;100.00
49979;BME280;35869;50.990;6.962;2024-02-14T05:28:49;101334.75;;;9.21;100.00
49979;BME280;35869;50.990;6.962;2024-02-14T05:39:31;101337.59;;;9.12;100.00
49979;BME280;35869;50.990;6.962;2024-02-14T05:44:42;101347.06;;;9.13;100.00
49979;BME280;35869;50.990;6.962;2024-02-14T05:49:42;101354.84;;;9.13;100.00
49979;BME280;35869;50.990;6.962;2024-02-14T05:54:42;101359.91;;;9.17;100.00
49979;BME280;35869;50.990;6.962;2024-02-14T05:59:42;101365.00;;;9.20;100.00
49979;BME280;35869;50.990;6.962;2024-02-14T06:04:42;101363.47;;;9.15;100.00
49979;BME280;35869;50.990;6.962;2024-02-14T06:09:43;101348.75;;;9.14;100.00
49979;BME280;35869;50.990;6.962;2024-02-14T06:14:43;101358.28;;;9.15;100.00
49979;BME280;35869;50.990;6.962;2024-02-14T06:19:43;101348.75;;;9.15;100.00
49979;BME280;35869;50.990;6.962;2024-02-14T06:24:43;101352.19;;;9.14;100.00
49979;BME280;35869;50.990;6.962;2024-02-14T06:29:44;101365.94;;;9.18;100.00
49979;BME280;35869;50.990;6.962;2024-02-14T06:34:44;101364.16;;;9.20;100.00
49979;BME280;35869;50.990;6.962;2024-02-14T06:39:44;101372.75;;;9.22;100.00
49979;BME280;35869;50.990;6.962;2024-02-14T06:44:45;101376.31;;;9.18;100.00
49979;BME280;35869;50.990;6.962;2024-02-14T06:49:45;101377.16;;;9.18;100.00
49979;BME280;35869;50.990;6.962;2024-02-14T06:54:45;101368.31;;;9.25;100.00
49979;BME280;35869;50.990;6.962;2024-02-14T06:59:45;101377.16;;;9.18;100.00
49979;BME280;35869;50.990;6.962;2024-02-14T07:04:46;101377.94;;;9.22;100.00
49979;BME280;35869;50.990;6.962;2024-02-14T07:09:46;101391.75;;;9.22;100.00
49979;BME280;35869;50.990;6.962;2024-02-14T07:14:47;101383.03;;;9.25;100.00
49979;BME280;35869;50.990;6.962;2024-02-14T07:19:47;101392.34;;;9.32;100.00
49979;BME280;35869;50.990;6.962;2024-02-14T07:24:47;101394.78;;;9.38;100.00
49979;BME280;35869;50.990;6.962;2024-02-14T07:29:48;101394.94;;;9.32;100.00
49979;BME280;35869;50.990;6.962;2024-02-14T07:34:48;101416.47;;;9.35;100.00
49979;BME280;35869;50.990;6.962;2024-02-14T07:39:48;101406.88;;;9.38;100.00
49979;BME280;35869;50.990;6.962;2024-02-14T07:44:48;101405.31;;;9.32;100.00
49979;BME280;35869;50.990;6.962;2024-02-14T07:49:49;101413.91;;;9.34;100.00
49979;BME280;35869;50.990;6.962;2024-02-14T07:54:53;101418.97;;;9.39;100.00
49979;BME280;35869;50.990;6.962;2024-02-14T07:59:53;101414.59;;;9.41;100.00
49979;BME280;35869;50.990;6.962;2024-02-14T08:04:53;101416.22;;;9.45;100.00
49979;BME280;35869;50.990;6.962;2024-02-14T08:09:54;101412.41;;;9.56;100.00
49979;BME280;35869;50.990;6.962;2024-02-14T08:14:54;101405.41;;;9.58;100.00
49979;BME280;35869;50.990;6.962;2024-02-14T08:19:54;101415.09;;;9.53;100.00
49979;BME280;35869;50.990;6.962;2024-02-14T08:24:55;101404.41;;;9.64;100.00
49979;BME280;35869;50.990;6.962;2024-02-14T08:29:55;101404.34;;;9.66;100.00
49979;BME280;35869;50.990;6.962;2024-02-14T08:34:55;101413.63;;;9.73;100.00
49979;BME280;35869;50.990;6.962;2024-02-14T08:39:56;101416.94;;;9.79;100.00
49979;BME280;35869;50.990;6.962;2024-02-14T08:44:57;101429.84;;;9.81;100.00
49979;BME280;35869;50.990;6.962;2024-02-14T08:49:57;101433.16;;;9.86;100.00
49979;BME280;35869;50.990;6.962;2024-02-14T08:54:57;101438.25;;;9.89;100.00
49979;BME280;35869;50.990;6.962;2024-02-14T08:59:57;101435.16;;;10.06;100.00
49979;BME280;35869;50.990;6.962;2024-02-14T09:04:58;101436.53;;;10.18;100.00
49979;BME280;35869;50.990;6.962;2024-02-14T09:09:58;101433.94;;;10.18;100.00
49979;BME280;35869;50.990;6.962;2024-02-14T09:14:58;101427.38;;;10.06;100.00
49979;BME280;35869;50.990;6.962;2024-02-14T09:19:58;101417.50;;;10.17;100.00
49979;BME280;35869;50.990;6.962;2024-02-14T09:24:58;101419.94;;;10.22;100.00
49979;BME280;35869;50.990;6.962;2024-02-14T09:29:59;101429.09;;;10.61;100.00
49979;BME280;35869;50.990;6.962;2024-02-14T09:34:59;101424.41;;;10.71;100.00
49979;BME280;35869;50.990;6.962;2024-02-14T09:39:59;101415.69;;;10.74;100.00
49979;BME280;35869;50.990;6.962;2024-02-14T09:45:00;101421.03;;;10.69;100.00
49979;BME280;35869;50.990;6.962;2024-02-14T09:50:03;101426.88;;;10.76;100.00
49979;BME280;35869;50.990;6.962;2024-02-14T09:55:05;101434.97;;;10.93;100.00
49979;BME280;35869;50.990;6.962;2024-02-14T10:00:06;101442.75;;;10.93;100.00
49979;BME280;35869;50.990;6.962;2024-02-14T10:05:07;101444.38;;;10.95;100.00
49979;BME280;35869;50.990;6.962;2024-02-14T10:10:07;101444.31;;;10.99;100.00
49979;BME280;35869;50.990;6.962;2024-02-14T10:15:08;101441.38;;;11.08;100.00
49979;BME280;35869;50.990;6.962;2024-02-14T10:20:09;101450.09;;;11.32;100.00
49979;BME280;35869;50.990;6.962;2024-02-14T10:25:10;101459.91;;;11.24;100.00
49979;BME280;35869;50.990;6.962;2024-02-14T10:30:11;101465.88;;;11.26;100.00
49979;BME280;35869;50.990;6.962;2024-02-14T10:35:12;101466.59;;;11.31;100.00
49979;BME280;35869;50.990;6.962;2024-02-14T10:40:12;101462.19;;;11.33;100.00
49979;BME280;35869;50.990;6.962;2024-02-14T10:45:12;101455.63;;;11.46;100.00
49979;BME280;35869;50.990;6.962;2024-02-14T10:50:13;101462.53;;;11.47;100.00
49979;BME280;35869;50.990;6.962;2024-02-14T10:55:13;101459.94;;;11.70;100.00
49979;BME280;35869;50.990;6.962;2024-02-14T11:00:15;101464.31;;;11.70;100.00
49979;BME280;35869;50.990;6.962;2024-02-14T11:05:16;101468.06;;;11.86;100.00
49979;BME280;35869;50.990;6.962;2024-02-14T11:10:16;101469.59;;;11.92;100.00
49979;BME280;35869;50.990;6.962;2024-02-14T11:15:21;101468.84;;;11.88;100.00
49979;BME280;35869;50.990;6.962;2024-02-14T11:20:32;101460.22;;;12.10;100.00
49979;BME280;35869;50.990;6.962;2024-02-14T11:25:33;101461.41;;;12.01;100.00
49979;BME280;35869;50.990;6.962;2024-02-14T11:30:34;101467.31;;;12.06;100.00
49979;BME280;35869;50.990;6.962;2024-02-14T11:35:35;101458.06;;;12.21;100.00
49979;BME280;35869;50.990;6.962;2024-02-14T11:40:38;101456.41;;;12.18;100.00
49979;BME280;35869;50.990;6.962;2024-02-14T11:45:39;101459.44;;;12.30;100.00
49979;BME280;35869;50.990;6.962;2024-02-14T11:50:39;101454.97;;;12.33;100.00
49979;BME280;35869;50.990;6.962;2024-02-14T11:55:40;101456.16;;;12.24;100.00
49979;BME280;35869;50.990;6.962;2024-02-14T12:00:41;101447.91;;;12.35;100.00
49979;BME280;35869;50.990;6.962;2024-02-14T12:05:41;101443.13;;;12.24;100.00
49979;BME280;35869;50.990;6.962;2024-02-14T12:10:42;101435.03;;;12.32;100.00
49979;BME280;35869;50.990;6.962;2024-02-14T12:15:46;101447.38;;;12.27;100.00
49979;BME280;35869;50.990;6.962;2024-02-14T12:20:47;101445.06;;;12.19;100.00
49979;BME280;35869;50.990;6.962;2024-02-14T12:25:47;101444.34;;;12.38;100.00
49979;BME280;35869;50.990;6.962;2024-02-14T12:30:49;101435.31;;;12.24;100.00
49979;BME280;35869;50.990;6.962;2024-02-14T12:35:51;101436.41;;;12.41;100.00
49979;BME280;35869;50.990;6.962;2024-02-14T12:40:53;101442.00;;;12.32;100.00
49979;BME280;35869;50.990;6.962;2024-02-14T12:45:53;101429.97;;;12.49;100.00
49979;BME280;35869;50.990;6.962;2024-02-14T12:50:53;101425.22;;;12.59;100.00
49979;BME280;35869;50.990;6.962;2024-02-14T12:55:53;101431.97;;;12.43;100.00
49979;BME280;35869;50.990;6.962;2024-02-14T13:00:54;101419.16;;;12.59;100.00
49979;BME280;35869;50.990;6.962;2024-02-14T13:05:54;101412.31;;;12.56;100.00
49979;BME280;35869;50.990;6.962;2024-02-14T13:10:54;101418.81;;;12.46;100.00
49979;BME280;35869;50.990;6.962;2024-02-14T13:15:54;101419.72;;;12.45;100.00
49979;BME280;35869;50.990;6.962;2024-02-14T13:20:54;101418.59;;;12.72;100.00
49979;BME280;35869;50.990;6.962;2024-02-14T13:25:55;101409.19;;;12.68;100.00
49979;BME280;35869;50.990;6.962;2024-02-14T13:30:55;101405.94;;;12.63;100.00
49979;BME280;35869;50.990;6.962;2024-02-14T13:35:55;101418.19;;;12.61;100.00
49979;BME280;35869;50.990;6.962;2024-02-14T13:40:55;101412.16;;;12.59;100.00
49979;BME280;35869;50.990;6.962;2024-02-14T13:45:56;101426.41;;;12.72;100.00
49979;BME280;35869;50.990;6.962;2024-02-14T13:50:56;101420.97;;;12.77;100.00
49979;BME280;35869;50.990;6.962;2024-02-14T13:55:56;101430.06;;;12.68;100.00
49979;BME280;35869;50.990;6.962;2024-02-14T14:00:56;101422.69;;;12.58;100.00
49979;BME280;35869;50.990;6.962;2024-02-14T14:05:56;101411.00;;;12.66;100.00
49979;BME280;35869;50.990;6.962;2024-02-14T14:10:57;101411.25;;;12.60;100.00
49979;BME280;35869;50.990;6.962;2024-02-14T14:15:57;101416.63;;;12.57;100.00
49979;BME280;35869;50.990;6.962;2024-02-14T14:20:58;101415.19;;;12.50;100.00
49979;BME280;35869;50.990;6.962;2024-02-14T14:25:58;101426.19;;;12.57;100.00
49979;BME280;35869;50.990;6.962;2024-02-14T14:30:58;101421.34;;;12.47;100.00
49979;BME280;35869;50.990;6.962;2024-02-14T14:35:59;101420.75;;;12.41;100.00
49979;BME280;35869;50.990;6.962;2024-02-14T14:40:59;101431.44;;;12.35;100.00
49979;BME280;35869;50.990;6.962;2024-02-14T14:45:59;101431.44;;;12.35;100.00
49979;BME280;35869;50.990;6.962;2024-02-14T14:50:59;101433.38;;;12.30;100.00
49979;BME280;35869;50.990;6.962;2024-02-14T14:55:59;101435.31;;;12.24;100.00
49979;BME280;35869;50.990;6.962;2024-02-14T15:01:00;101433.50;;;12.26;100.00
49979;BME280;35869;50.990;6.962;2024-02-14T15:06:00;101425.94;;;12.20;100.00
49979;BME280;35869;50.990;6.962;2024-02-14T15:11:00;101425.13;;;12.18;100.00
49979;BME280;35869;50.990;6.962;2024-02-14T15:16:01;101428.78;;;12.14;100.00
49979;BME280;35869;50.990;6.962;2024-02-14T15:21:01;101428.88;;;12.11;100.00
49979;BME280;35869;50.990;6.962;2024-02-14T15:26:01;101432.41;;;12.10;100.00
49979;BME280;35869;50.990;6.962;2024-02-14T15:31:01;101424.84;;;12.04;100.00
49979;BME280;35869;50.990;6.962;2024-02-14T15:36:01;101422.09;;;12.07;100.00
49979;BME280;35869;50.990;6.962;2024-02-14T15:41:02;101422.91;;;12.09;100.00
49979;BME280;35869;50.990;6.962;2024-02-14T15:46:02;101415.31;;;12.03;100.00
49979;BME280;35869;50.990;6.962;2024-02-14T15:51:02;101408.53;;;11.99;100.00
49979;BME280;35869;50.990;6.962;2024-02-14T15:56:02;101415.91;;;11.88;100.00
49979;BME280;35869;50.990;6.962;2024-02-14T16:01:03;101417.59;;;11.89;100.00
49979;BME280;35869;50.990;6.962;2024-02-14T16:06:03;101422.94;;;11.86;100.00
49979;BME280;35869;50.990;6.962;2024-02-14T16:11:03;101423.72;;;11.88;100.00
49979;BME280;35869;50.990;6.962;2024-02-14T16:16:04;101424.06;;;11.79;100.00
49979;BME280;35869;50.990;6.962;2024-02-14T16:21:08;101429.28;;;11.79;100.00
49979;BME280;35869;50.990;6.962;2024-02-14T16:26:08;101423.31;;;11.75;100.00
49979;BME280;35869;50.990;6.962;2024-02-14T16:31:08;101432.06;;;11.72;100.00
49979;BME280;35869;50.990;6.962;2024-02-14T16:36:09;101428.75;;;11.69;100.00
49979;BME280;35869;50.990;6.962;2024-02-14T16:41:09;101427.06;;;11.68;100.00
49979;BME280;35869;50.990;6.962;2024-02-14T16:46:09;101429.78;;;11.65;100.00
49979;BME280;35869;50.990;6.962;2024-02-14T16:51:09;101424.69;;;11.62;100.00
49979;BME280;35869;50.990;6.962;2024-02-14T16:56:09;101435.13;;;11.60;100.00
49979;BME280;35869;50.990;6.962;2024-02-14T17:01:10;101439.50;;;11.60;100.00
49979;BME280;35869;50.990;6.962;2024-02-14T17:06:10;101437.97;;;11.54;100.00
49979;BME280;35869;50.990;6.962;2024-02-14T17:11:14;101451.84;;;11.55;100.00
49979;BME280;35869;50.990;6.962;2024-02-14T17:16:14;101446.69;;;11.53;100.00
49979;BME280;35869;50.990;6.962;2024-02-14T17:21:14;101443.31;;;11.51;100.00
49979;BME280;35869;50.990;6.962;2024-02-14T17:26:15;101457.25;;;11.48;100.00
49979;BME280;35869;50.990;6.962;2024-02-14T17:31:15;101447.81;;;11.46;100.00
49979;BME280;35869;50.990;6.962;2024-02-14T17:36:15;101452.13;;;11.47;100.00
49979;BME280;35869;50.990;6.962;2024-02-14T17:41:16;101451.41;;;11.43;100.00
49979;BME280;35869;50.990;6.962;2024-02-14T17:46:16;101456.47;;;11.46;100.00
49979;BME280;35869;50.990;6.962;2024-02-14T17:51:16;101461.00;;;11.41;100.00
49979;BME280;35869;50.990;6.962;2024-02-14T17:56:16;101461.84;;;11.42;100.00
49979;BME280;35869;50.990;6.962;2024-02-14T18:01:17;101461.06;;;11.40;100.00
49979;BME280;35869;50.990;6.962;2024-02-14T18:06:17;101473.16;;;11.41;100.00
49979;BME280;35869;50.990;6.962;2024-02-14T18:11:17;101477.59;;;11.39;100.00
49979;BME280;35869;50.990;6.962;2024-02-14T18:16:20;101480.88;;;11.44;100.00
49979;BME280;35869;50.990;6.962;2024-02-14T18:21:20;101487.19;;;11.37;100.00
49979;BME280;35869;50.990;6.962;2024-02-14T18:26:21;101488.03;;;11.37;100.00
49979;BME280;35869;50.990;6.962;2024-02-14T18:31:23;101489.00;;;11.35;100.00
49979;BME280;35869;50.990;6.962;2024-02-14T18:36:23;101495.19;;;11.32;100.00
49979;BME280;35869;50.990;6.962;2024-02-14T18:41:23;101502.97;;;11.32;100.00
49979;BME280;35869;50.990;6.962;2024-02-14T18:46:26;101500.41;;;11.31;100.00
49979;BME280;35869;50.990;6.962;2024-02-14T18:51:26;101506.31;;;11.36;100.00
49979;BME280;35869;50.990;6.962;2024-02-14T18:56:26;101506.38;;;11.34;100.00
49979;BME280;35869;50.990;6.962;2024-02-14T19:01:26;101505.53;;;11.34;100.00
49979;BME280;35869;50.990;6.962;2024-02-14T19:06:26;101505.59;;;11.32;100.00
49979;BME280;35869;50.990;6.962;2024-02-14T19:11:27;101499.47;;;11.33;100.00
49979;BME280;35869;50.990;6.962;2024-02-14T19:16:27;101506.53;;;11.30;100.00
49979;BME280;35869;50.990;6.962;2024-02-14T19:21:27;101510.81;;;11.31;100.00
49979;BME280;35869;50.990;6.962;2024-02-14T19:26:27;101506.44;;;11.33;100.00
49979;BME280;35869;50.990;6.962;2024-02-14T19:31:27;101506.53;;;11.30;100.00
49979;BME280;35869;50.990;6.962;2024-02-14T19:36:28;101499.53;;;11.32;100.00
49979;BME280;35869;50.990;6.962;2024-02-14T19:41:28;101513.28;;;11.35;100.00
49979;BME280;35869;50.990;6.962;2024-02-14T19:46:28;101509.88;;;11.33;100.00
49979;BME280;35869;50.990;6.962;2024-02-14T19:51:28;101517.69;;;11.33;100.00
49979;BME280;35869;50.990;6.962;2024-02-14T19:56:29;101519.38;;;11.34;100.00
49979;BME280;35869;50.990;6.962;2024-02-14T20:01:29;101516.84;;;11.33;100.00
49979;BME280;35869;50.990;6.962;2024-02-14T20:06:29;101525.44;;;11.35;100.00
49979;BME280;35869;50.990;6.962;2024-02-14T20:11:29;101531.63;;;11.32;100.00
49979;BME280;35869;50.990;6.962;2024-02-14T20:16:30;101523.81;;;11.32;100.00
49979;BME280;35869;50.990;6.962;2024-02-14T20:21:30;101532.34;;;11.36;100.00
49979;BME280;35869;50.990;6.962;2024-02-14T20:26:32;101523.63;;;11.37;100.00
49979;BME280;35869;50.990;6.962;2024-02-14T20:31:32;101517.53;;;11.38;100.00
49979;BME280;35869;50.990;6.962;2024-02-14T20:36:33;101508.66;;;11.43;100.00
49979;BME280;35869;50.990;6.962;2024-02-14T20:41:33;101507.75;;;11.44;100.00
49979;BME280;35869;50.990;6.962;2024-02-14T20:46:33;101508.66;;;11.43;100.00
49979;BME280;35869;50.990;6.962;2024-02-14T20:51:36;101512.22;;;11.41;100.00
49979;BME280;35869;50.990;6.962;2024-02-14T20:56:37;101511.38;;;11.40;100.00
49979;BME280;35869;50.990;6.962;2024-02-14T21:01:37;101519.22;;;11.39;100.00
49979;BME280;35869;50.990;6.962;2024-02-14T21:06:37;101518.31;;;11.40;100.00
49979;BME280;35869;50.990;6.962;2024-02-14T21:11:37;101518.31;;;11.40;100.00
49979;BME280;35869;50.990;6.962;2024-02-14T21:16:38;101520.16;;;11.38;100.00
49979;BME280;35869;50.990;6.962;2024-02-14T21:21:38;101528.72;;;11.40;100.00
49979;BME280;35869;50.990;6.962;2024-02-14T21:26:38;101528.81;;;11.38;100.00
49979;BME280;35869;50.990;6.962;2024-02-14T21:31:38;101529.69;;;11.37;100.00
49979;BME280;35869;50.990;6.962;2024-02-14T21:36:38;101527.88;;;11.39;100.00
49979;BME280;35869;50.990;6.962;2024-02-14T21:41:39;101527.94;;;11.38;100.00
49979;BME280;35869;50.990;6.962;2024-02-14T21:46:39;101524.44;;;11.39;100.00
49979;BME280;35869;50.990;6.962;2024-02-14T21:51:39;101523.59;;;11.38;100.00
49979;BME280;35869;50.990;6.962;2024-02-14T21:56:39;101527.88;;;11.39;100.00
49979;BME280;35869;50.990;6.962;2024-02-14T22:01:40;101524.44;;;11.39;100.00
49979;BME280;35869;50.990;6.962;2024-02-14T22:06:40;101522.78;;;11.36;100.00
49979;BME280;35869;50.990;6.962;2024-02-14T22:11:40;101522.75;;;11.38;100.00
49979;BME280;35869;50.990;6.962;2024-02-14T22:16:40;101518.53;;;11.34;100.00
49979;BME280;35869;50.990;6.962;2024-02-14T22:21:41;101507.28;;;11.33;100.00
49979;BME280;35869;50.990;6.962;2024-02-14T22:26:41;101515.94;;;11.34;100.00
49979;BME280;35869;50.990;6.962;2024-02-14T22:31:41;101516.84;;;11.33;100.00
49979;BME280;35869;50.990;6.962;2024-02-14T22:36:41;101509.94;;;11.32;100.00
49979;BME280;35869;50.990;6.962;2024-02-14T22:41:41;101510.81;;;11.31;100.00
49979;BME280;35869;50.990;6.962;2024-02-14T22:46:42;101511.63;;;11.33;100.00
49979;BME280;35869;50.990;6.962;2024-02-14T22:51:42;101511.72;;;11.30;100.00
49979;BME280;35869;50.990;6.962;2024-02-14T22:56:42;101511.72;;;11.30;100.00
49979;BME280;35869;50.990;6.962;2024-02-14T23:01:42;101509.19;;;11.28;100.00
49979;BME280;35869;50.990;6.962;2024-02-14T23:06:43;101520.44;;;11.29;100.00
49979;BME280;35869;50.990;6.962;2024-02-14T23:11:43;101506.66;;;11.27;100.00
49979;BME280;35869;50.990;6.962;2024-02-14T23:16:43;101507.50;;;11.27;100.00
49979;BME280;35869;50.990;6.962;2024-02-14T23:21:43;101511.78;;;11.28;100.00
49979;BME280;35869;50.990;6.962;2024-02-14T23:26:43;101504.06;;;11.25;100.00
49979;BME280;35869;50.990;6.962;2024-02-14T23:31:43;101514.41;;;11.28;100.00
49979;BME280;35869;50.990;6.962;2024-02-14T23:36:44;101518.84;;;11.25;100.00
49979;BME280;35869;50.990;6.962;2024-02-14T23:41:44;101516.31;;;11.23;100.00
49979;BME280;35869;50.990;6.962;2024-02-14T23:46:44;101512.06;;;11.20;100.00
49979;BME280;35869;50.990;6.962;2024-02-14T23:51:44;101519.06;;;11.18;100.00
49979;BME280;35869;50.990;6.962;2024-02-14T23:56:45;101521.66;;;11.18;100.00
